Time;durP1;ratioP1;P1;durP2;ratioP2;P2;SDS_P1;SDS_P2;PMS_P1;PMS_P2;Temp;Humidity;BMP_temperature;BMP_pressure;BME280_temperature;BME280_humidity;BME280_pressure;Samples;Min_cycle;Max_cycle;Signal;HPM_P1;HPM_P2
2023/03/08 00:01:59;;;;;;;;;44.00;38.50;;;;;;;;5096216;27;45503;-70
2023/03/08 00:04:24;;;;;;;;;48.00;38.50;;;;;;;;5095724;27;45339;-70
2023/03/08 00:06:50;;;;;;;;;35.75;33.75;;;;;;;;5095937;27;45396;-70
2023/03/08 00:09:15;;;;;;;;;42.25;36.25;;;;;;;;5095573;27;45378;-70
2023/03/08 00:11:40;;;;;;;;;42.50;37.25;;;;;;;;5095657;27;45259;-70
2023/03/08 00:14:05;;;;;;;;;32.25;32.25;;;;;;;;5098801;27;46038;-70
2023/03/08 00:16:30;;;;;;;;;34.25;28.00;;;;;;;;5099387;27;45257;-69
2023/03/08 00:18:55;;;;;;;;;46.00;37.75;;;;;;;;5099447;27;45294;-69
2023/03/08 00:21:21;;;;;;;;;35.00;29.75;;;;;;;;5099306;27;45240;-70
2023/03/08 00:23:46;;;;;;;;;44.00;39.25;;;;;;;;5099068;27;46051;-69
2023/03/08 00:26:12;;;;;;;;;40.00;34.50;;;;;;;;5097794;27;45385;-69
2023/03/08 00:28:37;;;;;;;;;36.25;30.25;;;;;;;;5108862;27;45316;-69
2023/03/08 00:31:07;;;;;;;;;39.25;33.50;;;;;;;;5113785;27;28391;-69
2023/03/08 00:33:32;;;;;;;;;40.00;36.25;;;;;;;;5113666;27;28397;-69
2023/03/08 00:36:04;;;;;;;;;38.50;35.50;;;;;;;;5114669;27;28491;-69
2023/03/08 00:44:52;;;;;;;;;;;;;;;;;;2117303;27;229040492;-69
2023/03/08 00:49:58;;;;;;;;;25.50;25.50;;;;;;;;2;276271139;276271139;-69
2023/03/08 00:54:09;;;;;;;;;14.00;14.00;;;;;;;;705131;27;138326535;-68
2023/03/08 00:56:34;;;;;;;;;30.75;27.50;;;;;;;;5107808;27;121532;-69
2023/03/08 01:01:35;;;;;;;;;;;;;;;;;;691587;27;242473827;-68
2023/03/08 01:04:01;;;;;;;;;29.75;26.75;;;;;;;;5074557;27;807151;-69
2023/03/08 01:06:27;;;;;;;;;21.50;20.75;;;;;;;;5114526;27;28382;-68
2023/03/08 01:08:52;;;;;;;;;28.25;26.00;;;;;;;;5114626;27;28367;-69
2023/03/08 01:11:24;;;;;;;;;30.00;28.00;;;;;;;;5114438;27;28418;-68
2023/03/08 01:13:50;;;;;;;;;31.25;28.50;;;;;;;;5090485;27;43111;-68
2023/03/08 01:16:17;;;;;;;;;32.50;31.25;;;;;;;;5096209;28;42234;-69
2023/03/08 01:18:43;;;;;;;;;32.25;25.00;;;;;;;;5092512;28;28445;-68
2023/03/08 01:21:09;;;;;;;;;33.50;31.75;;;;;;;;5075018;28;31064;-68
2023/03/08 01:23:34;;;;;;;;;32.25;30.25;;;;;;;;5093756;28;28396;-69
2023/03/08 01:26:00;;;;;;;;;34.75;32.00;;;;;;;;5078319;28;45431;-69
2023/03/08 01:28:26;;;;;;;;;34.75;34.50;;;;;;;;5077735;28;45538;-69
2023/03/08 01:30:51;;;;;;;;;32.50;30.00;;;;;;;;5077049;28;46863;-69
2023/03/08 01:33:16;;;;;;;;;29.75;27.50;;;;;;;;5077503;27;45452;-68
2023/03/08 01:35:41;;;;;;;;;46.50;34.75;;;;;;;;5077379;27;45412;-69
2023/03/08 01:38:07;;;;;;;;;36.25;29.25;;;;;;;;5077586;28;45290;-69
2023/03/08 01:40:32;;;;;;;;;34.00;32.75;;;;;;;;5077294;28;46464;-69
2023/03/08 01:42:57;;;;;;;;;30.00;27.75;;;;;;;;5077311;28;45445;-69
2023/03/08 01:45:41;;;;;;;;;33.75;30.50;;;;;;;;5077506;28;45366;-69
2023/03/08 01:48:06;;;;;;;;;29.75;28.00;;;;;;;;5077197;27;45460;-69
2023/03/08 01:50:31;;;;;;;;;33.00;27.25;;;;;;;;5075478;28;45451;-69
2023/03/08 01:52:57;;;;;;;;;31.75;27.00;;;;;;;;5077225;28;45373;-69
2023/03/08 01:55:22;;;;;;;;;29.50;28.50;;;;;;;;5077450;28;45306;-69
2023/03/08 01:57:50;;;;;;;;;37.25;35.00;;;;;;;;5075778;28;45449;-69
2023/03/08 02:00:17;;;;;;;;;24.00;23.25;;;;;;;;5077087;28;45277;-69
2023/03/08 02:03:12;;;;;;;;;28.50;25.50;;;;;;;;5075594;28;45366;-69
2023/03/08 02:05:39;;;;;;;;;31.25;26.50;;;;;;;;5071951;28;45356;-68
2023/03/08 02:08:04;;;;;;;;;36.25;28.25;;;;;;;;5077081;28;45373;-67
2023/03/08 02:10:29;;;;;;;;;32.75;29.25;;;;;;;;5076771;28;45369;-68
2023/03/08 02:12:55;;;;;;;;;32.25;27.50;;;;;;;;5088844;27;46233;-68
2023/03/08 02:15:20;;;;;;;;;29.25;24.50;;;;;;;;5097466;27;45980;-68
2023/03/08 02:17:46;;;;;;;;;28.50;27.75;;;;;;;;5095635;27;45472;-68
2023/03/08 02:20:31;;;;;;;;;26.25;23.25;;;;;;;;5097069;27;45568;-68
2023/03/08 02:23:16;;;;;;;;;24.75;24.50;;;;;;;;5095851;27;45383;-70
2023/03/08 02:25:48;;;;;;;;;26.00;23.75;;;;;;;;5097208;27;45456;-69
2023/03/08 02:28:13;;;;;;;;;29.00;26.75;;;;;;;;5096511;27;45248;-69
2023/03/08 02:30:38;;;;;;;;;28.75;25.50;;;;;;;;5096107;27;46504;-69
2023/03/08 02:33:04;;;;;;;;;35.75;28.25;;;;;;;;5096473;27;45465;-69
2023/03/08 02:35:29;;;;;;;;;24.75;21.50;;;;;;;;5094831;27;45292;-69
2023/03/08 02:37:54;;;;;;;;;26.50;22.50;;;;;;;;5096786;27;45404;-69
2023/03/08 02:40:20;;;;;;;;;31.50;26.75;;;;;;;;5096193;27;47181;-69
2023/03/08 02:42:45;;;;;;;;;17.50;14.00;;;;;;;;5096577;27;45479;-69
2023/03/08 02:45:11;;;;;;;;;28.75;25.00;;;;;;;;5096865;27;45413;-69
2023/03/08 02:47:36;;;;;;;;;36.25;28.50;;;;;;;;5096459;27;45418;-69
2023/03/08 02:50:02;;;;;;;;;29.75;24.00;;;;;;;;5096305;27;45655;-69
2023/03/08 02:52:27;;;;;;;;;23.25;23.00;;;;;;;;5096776;27;45449;-69
2023/03/08 02:54:52;;;;;;;;;37.25;31.00;;;;;;;;5096648;27;45333;-69
2023/03/08 02:57:18;;;;;;;;;27.25;22.25;;;;;;;;5095432;27;45512;-69
2023/03/08 02:59:43;;;;;;;;;34.00;28.00;;;;;;;;5096001;27;45578;-69
2023/03/08 03:02:08;;;;;;;;;27.75;23.50;;;;;;;;5094739;27;45403;-69
2023/03/08 03:04:33;;;;;;;;;28.75;26.75;;;;;;;;5095766;27;45282;-69
2023/03/08 03:06:59;;;;;;;;;30.25;28.50;;;;;;;;5096405;27;45531;-69
2023/03/08 03:09:24;;;;;;;;;35.25;30.00;;;;;;;;5096578;27;45815;-69
2023/03/08 03:11:50;;;;;;;;;40.00;35.25;;;;;;;;5096235;27;45505;-70
2023/03/08 03:14:15;;;;;;;;;35.25;33.00;;;;;;;;5095867;27;45289;-69
2023/03/08 03:16:40;;;;;;;;;40.75;35.00;;;;;;;;5095924;27;45311;-70
2023/03/08 03:19:05;;;;;;;;;34.00;32.50;;;;;;;;5095995;27;46282;-70
2023/03/08 03:21:31;;;;;;;;;40.75;34.00;;;;;;;;5096317;27;45291;-70
2023/03/08 03:23:56;;;;;;;;;38.50;35.50;;;;;;;;5095963;27;45416;-70
2023/03/08 03:26:22;;;;;;;;;31.00;28.50;;;;;;;;5096247;27;45498;-70
2023/03/08 03:28:48;;;;;;;;;37.75;30.50;;;;;;;;5095779;27;46181;-70
2023/03/08 03:31:15;;;;;;;;;44.75;39.00;;;;;;;;5095386;27;45606;-70
2023/03/08 03:33:41;;;;;;;;;36.75;31.75;;;;;;;;5094563;27;45405;-70
2023/03/08 03:36:08;;;;;;;;;50.00;38.50;;;;;;;;5096101;27;45427;-70
2023/03/08 03:38:33;;;;;;;;;51.25;39.50;;;;;;;;5110890;27;47040;-70
2023/03/08 03:41:09;;;;;;;;;36.25;34.25;;;;;;;;5111769;27;28423;-70
2023/03/08 03:43:35;;;;;;;;;29.00;26.00;;;;;;;;5111554;27;42386;-70
2023/03/08 03:46:01;;;;;;;;;38.25;35.00;;;;;;;;5096017;27;45579;-70
2023/03/08 03:48:26;;;;;;;;;36.75;33.25;;;;;;;;5093293;27;46328;-70
2023/03/08 03:51:02;;;;;;;;;34.00;28.25;;;;;;;;5095827;27;45343;-70
2023/03/08 03:53:28;;;;;;;;;26.75;24.75;;;;;;;;5095584;27;45527;-70
2023/03/08 03:55:53;;;;;;;;;23.75;23.75;;;;;;;;5095739;27;45215;-70
2023/03/08 03:58:18;;;;;;;;;26.25;24.50;;;;;;;;5095757;27;46329;-70
2023/03/08 04:00:44;;;;;;;;;29.50;25.00;;;;;;;;5093809;27;45394;-70
2023/03/08 04:03:09;;;;;;;;;26.50;23.75;;;;;;;;5095660;27;45287;-69
2023/03/08 04:05:34;;;;;;;;;23.00;22.50;;;;;;;;5095904;27;45318;-70
2023/03/08 04:07:59;;;;;;;;;32.00;23.25;;;;;;;;5095479;27;46211;-70
2023/03/08 04:10:25;;;;;;;;;23.50;20.75;;;;;;;;5095404;27;45323;-69
2023/03/08 04:12:51;;;;;;;;;21.25;20.50;;;;;;;;5095398;27;45389;-70
2023/03/08 04:15:16;;;;;;;;;25.25;22.25;;;;;;;;5095363;27;45388;-70
2023/03/08 04:17:42;;;;;;;;;25.25;20.00;;;;;;;;5094907;27;45360;-70
2023/03/08 04:20:07;;;;;;;;;22.50;20.25;;;;;;;;5095329;27;45418;-70
2023/03/08 04:22:32;;;;;;;;;24.25;22.00;;;;;;;;5095451;27;45403;-70
2023/03/08 04:24:58;;;;;;;;;21.75;19.00;;;;;;;;5095549;27;45303;-70
2023/03/08 04:27:23;;;;;;;;;20.25;20.00;;;;;;;;5095310;27;45459;-70
2023/03/08 04:29:48;;;;;;;;;19.25;15.50;;;;;;;;5095426;27;45395;-69
2023/03/08 04:32:14;;;;;;;;;20.75;18.00;;;;;;;;5095577;27;45376;-69
2023/03/08 04:34:39;;;;;;;;;17.25;15.50;;;;;;;;5095438;27;45580;-69
2023/03/08 04:37:04;;;;;;;;;17.75;16.25;;;;;;;;5093851;27;46293;-69
2023/03/08 04:39:29;;;;;;;;;16.50;13.25;;;;;;;;5095330;27;45455;-69
2023/03/08 04:41:55;;;;;;;;;16.25;16.25;;;;;;;;5095473;27;45306;-69
2023/03/08 04:44:20;;;;;;;;;19.25;14.50;;;;;;;;5093728;27;45583;-69
2023/03/08 04:46:45;;;;;;;;;15.25;14.00;;;;;;;;5095162;27;46060;-70
2023/03/08 04:49:10;;;;;;;;;17.50;14.50;;;;;;;;5093814;27;45397;-69
2023/03/08 04:51:35;;;;;;;;;5.00;2.75;;;;;;;;5095554;27;45347;-70
2023/03/08 04:54:03;;;;;;;;;11.50;9.50;;;;;;;;5095245;27;45544;-70
2023/03/08 04:56:28;;;;;;;;;9.00;9.00;;;;;;;;5093779;27;47132;-69
2023/03/08 04:58:53;;;;;;;;;7.25;4.25;;;;;;;;5094646;27;45381;-69
2023/03/08 05:01:21;;;;;;;;;8.50;7.25;;;;;;;;5098534;27;45358;-69
2023/03/08 05:03:48;;;;;;;;;6.00;4.25;;;;;;;;5098635;27;45387;-69
2023/03/08 05:06:13;;;;;;;;;9.75;8.25;;;;;;;;5098354;27;46351;-69
2023/03/08 05:08:39;;;;;;;;;8.00;6.00;;;;;;;;5098346;27;45506;-69
2023/03/08 05:11:04;;;;;;;;;8.00;8.00;;;;;;;;5098565;27;45391;-69
2023/03/08 05:13:31;;;;;;;;;8.50;7.75;;;;;;;;5098066;27;45379;-69
2023/03/08 05:15:57;;;;;;;;;7.75;7.75;;;;;;;;5097838;27;46205;-70
2023/03/08 05:18:22;;;;;;;;;11.25;8.50;;;;;;;;5096850;27;45417;-69
2023/03/08 05:20:57;;;;;;;;;5.00;4.00;;;;;;;;5098505;27;45259;-69
2023/03/08 05:23:23;;;;;;;;;8.00;7.75;;;;;;;;5097943;27;45525;-69
2023/03/08 05:25:50;;;;;;;;;9.25;8.00;;;;;;;;5096875;27;46164;-69
2023/03/08 05:28:15;;;;;;;;;7.00;7.00;;;;;;;;5096725;27;45454;-70
2023/03/08 05:30:41;;;;;;;;;5.75;5.75;;;;;;;;5098375;27;45323;-69
2023/03/08 05:33:06;;;;;;;;;8.75;6.50;;;;;;;;5098078;27;45347;-69
2023/03/08 05:35:32;;;;;;;;;9.75;8.75;;;;;;;;5098116;27;45407;-69
2023/03/08 05:37:57;;;;;;;;;8.25;8.25;;;;;;;;5098020;27;45431;-70
2023/03/08 05:40:22;;;;;;;;;8.75;8.75;;;;;;;;5097965;27;45360;-70
2023/03/08 05:42:47;;;;;;;;;7.75;7.50;;;;;;;;5097671;27;45326;-70
2023/03/08 05:45:12;;;;;;;;;8.50;8.50;;;;;;;;5096476;27;46975;-70
2023/03/08 05:47:38;;;;;;;;;8.00;7.00;;;;;;;;5097666;27;45470;-70
2023/03/08 05:50:03;;;;;;;;;5.00;2.25;;;;;;;;5097974;27;45400;-70
2023/03/08 05:52:29;;;;;;;;;7.00;7.00;;;;;;;;5097869;27;45334;-70
2023/03/08 05:54:54;;;;;;;;;5.50;4.50;;;;;;;;5097551;27;45604;-70
2023/03/08 05:57:20;;;;;;;;;6.00;5.75;;;;;;;;5096168;27;45435;-70
2023/03/08 05:59:45;;;;;;;;;5.00;5.00;;;;;;;;5096233;27;45406;-70
2023/03/08 06:02:10;;;;;;;;;4.00;4.00;;;;;;;;5096543;27;45499;-70
2023/03/08 06:04:35;;;;;;;;;4.00;4.00;;;;;;;;5097204;27;47213;-70
2023/03/08 06:07:00;;;;;;;;;6.25;4.25;;;;;;;;5096063;27;45515;-71
2023/03/08 06:09:26;;;;;;;;;6.25;6.25;;;;;;;;5097038;27;45316;-71
2023/03/08 06:11:51;;;;;;;;;3.00;2.00;;;;;;;;5095323;27;45580;-70
2023/03/08 06:14:16;;;;;;;;;4.75;4.75;;;;;;;;5097110;27;47018;-70
2023/03/08 06:16:42;;;;;;;;;6.50;4.75;;;;;;;;5097286;27;45218;-70
2023/03/08 06:19:07;;;;;;;;;2.50;2.50;;;;;;;;5097412;27;45337;-70
2023/03/08 06:21:32;;;;;;;;;7.00;6.50;;;;;;;;5097239;27;45448;-70
2023/03/08 06:23:57;;;;;;;;;5.00;4.00;;;;;;;;5096953;27;46284;-70
2023/03/08 06:26:23;;;;;;;;;2.00;2.00;;;;;;;;5097216;27;45361;-71
2023/03/08 06:28:48;;;;;;;;;8.00;8.00;;;;;;;;5097289;27;45276;-71
2023/03/08 06:31:14;;;;;;;;;4.00;3.25;;;;;;;;5097308;27;45471;-71
2023/03/08 06:33:40;;;;;;;;;3.50;3.00;;;;;;;;5095537;27;47270;-70
2023/03/08 06:36:10;;;;;;;;;3.00;3.00;;;;;;;;5096891;27;45413;-70
2023/03/08 06:38:36;;;;;;;;;1.00;1.00;;;;;;;;5096382;27;45446;-70
2023/03/08 06:41:02;;;;;;;;;5.00;4.00;;;;;;;;5096867;27;45297;-70
2023/03/08 06:43:27;;;;;;;;;3.00;3.00;;;;;;;;5096830;27;47506;-70
2023/03/08 06:45:52;;;;;;;;;2.00;2.00;;;;;;;;5096921;27;45290;-70
2023/03/08 06:48:18;;;;;;;;;2.00;2.00;;;;;;;;5095823;27;45392;-71
2023/03/08 06:50:44;;;;;;;;;3.00;3.00;;;;;;;;5097008;27;45348;-72
2023/03/08 06:53:09;;;;;;;;;3.00;3.00;;;;;;;;5094988;27;46449;-70
2023/03/08 06:55:35;;;;;;;;;4.00;4.00;;;;;;;;5096859;27;45290;-70
2023/03/08 06:58:00;;;;;;;;;4.00;3.25;;;;;;;;5095547;27;45606;-70
2023/03/08 07:00:26;;;;;;;;;4.00;3.75;;;;;;;;5096604;27;45467;-70
2023/03/08 07:02:52;;;;;;;;;4.25;3.75;;;;;;;;5096669;27;46491;-70
2023/03/08 07:05:17;;;;;;;;;3.25;3.25;;;;;;;;5096562;27;45435;-70
2023/03/08 07:07:43;;;;;;;;;4.25;3.50;;;;;;;;5096269;27;45373;-70
2023/03/08 07:10:11;;;;;;;;;2.00;2.00;;;;;;;;5096733;27;45356;-70
2023/03/08 07:12:39;;;;;;;;;3.00;3.00;;;;;;;;5096157;27;46290;-70
2023/03/08 07:15:05;;;;;;;;;3.00;3.00;;;;;;;;5096419;27;45356;-70
2023/03/08 07:17:33;;;;;;;;;2.00;2.00;;;;;;;;5096447;27;45440;-71
2023/03/08 07:19:58;;;;;;;;;2.75;2.75;;;;;;;;5096179;27;45401;-71
2023/03/08 07:22:24;;;;;;;;;3.00;3.00;;;;;;;;5095577;27;46163;-70
2023/03/08 07:24:49;;;;;;;;;2.00;2.00;;;;;;;;5096582;27;45388;-70
2023/03/08 07:27:14;;;;;;;;;2.00;2.00;;;;;;;;5096268;27;45613;-70
2023/03/08 07:29:39;;;;;;;;;3.00;3.00;;;;;;;;5095112;27;45392;-71
2023/03/08 07:32:05;;;;;;;;;2.25;2.25;;;;;;;;5095799;27;46227;-70
2023/03/08 07:34:30;;;;;;;;;4.00;3.00;;;;;;;;5095883;27;45401;-70
2023/03/08 07:36:55;;;;;;;;;2.25;2.25;;;;;;;;5094879;27;45574;-70
2023/03/08 07:39:21;;;;;;;;;3.00;3.00;;;;;;;;5096065;27;45452;-70
2023/03/08 07:41:47;;;;;;;;;1.00;1.00;;;;;;;;5094096;27;48225;-70
2023/03/08 07:44:12;;;;;;;;;2.00;2.00;;;;;;;;5095937;27;45318;-71
2023/03/08 07:46:37;;;;;;;;;4.50;3.25;;;;;;;;5095772;27;45354;-71
2023/03/08 07:49:02;;;;;;;;;2.00;2.00;;;;;;;;5095841;27;45413;-71
2023/03/08 07:51:27;;;;;;;;;2.75;2.00;;;;;;;;5096060;27;45523;-70
2023/03/08 07:53:53;;;;;;;;;2.50;1.50;;;;;;;;5095483;27;45457;-69
2023/03/08 07:56:18;;;;;;;;;1.00;0.00;;;;;;;;5096147;27;45357;-71
2023/03/08 07:58:43;;;;;;;;;1.75;1.75;;;;;;;;5095587;27;45354;-71
2023/03/08 08:01:09;;;;;;;;;1.00;1.00;;;;;;;;5095294;27;45403;-71
2023/03/08 08:03:36;;;;;;;;;2.75;1.25;;;;;;;;5095248;27;45420;-71
2023/03/08 08:06:02;;;;;;;;;1.75;1.75;;;;;;;;5096200;27;45346;-71
2023/03/08 08:08:28;;;;;;;;;4.00;2.00;;;;;;;;5096710;27;45296;-71
2023/03/08 08:10:53;;;;;;;;;1.50;1.00;;;;;;;;5096824;27;46329;-71
2023/03/08 08:13:18;;;;;;;;;1.75;1.75;;;;;;;;5095584;27;45515;-71
2023/03/08 08:15:43;;;;;;;;;3.25;2.25;;;;;;;;5096508;27;45475;-71
2023/03/08 08:18:09;;;;;;;;;1.75;1.75;;;;;;;;5096727;27;45424;-70
2023/03/08 08:20:34;;;;;;;;;1.00;0.00;;;;;;;;5096206;27;45609;-71
2023/03/08 08:22:59;;;;;;;;;1.00;0.00;;;;;;;;5095984;27;45372;-71
2023/03/08 08:25:24;;;;;;;;;3.00;1.00;;;;;;;;5095833;27;45381;-71
2023/03/08 08:27:50;;;;;;;;;2.00;1.00;;;;;;;;5095423;27;45493;-71
2023/03/08 08:30:16;;;;;;;;;1.00;1.00;;;;;;;;5095628;27;45475;-71
2023/03/08 08:32:41;;;;;;;;;3.00;1.75;;;;;;;;5095416;27;45328;-71
2023/03/08 08:35:07;;;;;;;;;1.25;1.25;;;;;;;;5098616;27;46068;-71
2023/03/08 08:37:32;;;;;;;;;2.00;2.00;;;;;;;;5099295;27;45481;-71
2023/03/08 08:39:58;;;;;;;;;2.75;2.25;;;;;;;;5098506;27;46027;-71
2023/03/08 08:42:23;;;;;;;;;2.75;1.75;;;;;;;;5099043;27;45301;-71
2023/03/08 08:44:49;;;;;;;;;1.50;1.50;;;;;;;;5098287;27;45454;-71
2023/03/08 08:47:14;;;;;;;;;7.75;5.00;;;;;;;;5097223;27;45534;-71
2023/03/08 08:49:40;;;;;;;;;2.50;1.00;;;;;;;;5098661;27;45999;-71
2023/03/08 08:52:05;;;;;;;;;4.75;2.25;;;;;;;;5099100;27;45534;-70
2023/03/08 08:54:32;;;;;;;;;2.00;2.00;;;;;;;;5097703;27;45653;-70
2023/03/08 08:56:57;;;;;;;;;2.50;2.50;;;;;;;;5098590;27;45432;-69
2023/03/08 08:59:23;;;;;;;;;3.25;3.00;;;;;;;;5098456;27;45429;-70
2023/03/08 09:01:48;;;;;;;;;2.00;2.00;;;;;;;;5098392;27;45443;-70
2023/03/08 09:04:15;;;;;;;;;4.75;2.25;;;;;;;;5098357;27;45414;-70
2023/03/08 09:06:40;;;;;;;;;3.50;3.50;;;;;;;;5098445;27;45458;-71
2023/03/08 09:09:06;;;;;;;;;2.25;2.00;;;;;;;;5096480;27;45332;-71
2023/03/08 09:11:31;;;;;;;;;4.50;3.25;;;;;;;;5096854;27;45987;-71
2023/03/08 09:13:56;;;;;;;;;2.75;2.75;;;;;;;;5098122;27;45456;-71
2023/03/08 09:16:25;;;;;;;;;3.75;3.75;;;;;;;;5097323;27;45299;-70
2023/03/08 09:18:51;;;;;;;;;4.25;3.00;;;;;;;;5098575;27;45329;-71
2023/03/08 09:21:16;;;;;;;;;3.00;1.75;;;;;;;;5098505;27;45370;-71
2023/03/08 09:23:42;;;;;;;;;3.50;1.00;;;;;;;;5098111;27;45329;-70
2023/03/08 09:26:07;;;;;;;;;1.75;1.75;;;;;;;;5098919;27;45368;-71
2023/03/08 09:28:33;;;;;;;;;2.00;2.00;;;;;;;;5098693;27;45463;-71
2023/03/08 09:30:59;;;;;;;;;2.00;2.00;;;;;;;;5098525;27;45358;-71
2023/03/08 09:33:24;;;;;;;;;1.50;1.50;;;;;;;;5096953;27;45465;-71
2023/03/08 09:35:56;;;;;;;;;3.00;2.00;;;;;;;;5097431;27;45361;-71
2023/03/08 09:38:22;;;;;;;;;2.50;2.25;;;;;;;;5096367;27;47102;-71
2023/03/08 09:40:56;;;;;;;;;1.00;1.00;;;;;;;;5097614;27;45538;-71
2023/03/08 09:43:27;;;;;;;;;1.75;1.75;;;;;;;;5098314;27;45351;-71
2023/03/08 09:45:53;;;;;;;;;2.00;1.00;;;;;;;;5098459;27;45241;-71
2023/03/08 09:48:22;;;;;;;;;1.00;1.00;;;;;;;;5097470;27;46040;-71
2023/03/08 09:50:52;;;;;;;;;2.50;2.00;;;;;;;;5098103;27;45380;-71
2023/03/08 09:53:36;;;;;;;;;2.50;2.50;;;;;;;;5098248;27;45288;-71
2023/03/08 09:56:02;;;;;;;;;5.75;2.75;;;;;;;;5097711;27;45486;-71
2023/03/08 09:58:30;;;;;;;;;2.50;2.50;;;;;;;;5096367;27;47213;-72
2023/03/08 10:00:58;;;;;;;;;3.00;2.75;;;;;;;;5097464;27;45484;-71
2023/03/08 10:03:52;;;;;;;;;1.00;1.00;;;;;;;;5098365;27;45377;-71
2023/03/08 10:06:21;;;;;;;;;4.50;3.00;;;;;;;;5098789;27;45482;-71
2023/03/08 10:08:57;;;;;;;;;3.00;3.00;;;;;;;;5098278;27;46229;-72
2023/03/08 10:11:34;;;;;;;;;4.00;3.50;;;;;;;;5098191;27;45318;-72
2023/03/08 10:14:05;;;;;;;;;2.25;2.25;;;;;;;;5095619;27;45315;-71
2023/03/08 10:16:31;;;;;;;;;2.25;2.25;;;;;;;;5097338;27;45444;-72
2023/03/08 10:19:19;;;;;;;;;1.75;1.00;;;;;;;;5097803;27;47147;-72
2023/03/08 10:21:45;;;;;;;;;3.00;3.00;;;;;;;;5096999;27;45360;-72
2023/03/08 10:24:25;;;;;;;;;1.75;0.50;;;;;;;;5096584;27;45317;-72
2023/03/08 10:26:50;;;;;;;;;3.67;2.00;;;;;;;;5097229;27;45368;-71
2023/03/08 10:29:15;;;;;;;;;2.75;2.00;;;;;;;;5097477;27;45304;-71
2023/03/08 10:31:42;;;;;;;;;1.75;1.00;;;;;;;;5099486;27;45459;-71
2023/03/08 10:34:07;;;;;;;;;1.00;1.00;;;;;;;;5099174;27;45253;-71
2023/03/08 10:36:33;;;;;;;;;1.25;1.25;;;;;;;;5098543;27;45202;-72
2023/03/08 10:39:01;;;;;;;;;1.00;1.00;;;;;;;;5098120;27;47026;-71
2023/03/08 10:41:28;;;;;;;;;1.00;0.00;;;;;;;;5097194;27;45307;-71
2023/03/08 10:43:54;;;;;;;;;0.00;0.00;;;;;;;;5097598;27;45414;-71
2023/03/08 10:46:23;;;;;;;;;2.33;1.00;;;;;;;;5097468;27;45498;-71
2023/03/08 10:48:49;;;;;;;;;3.00;0.00;;;;;;;;5097439;27;47268;-71
2023/03/08 10:51:22;;;;;;;;;1.33;0.00;;;;;;;;5097035;27;45551;-71
2023/03/08 10:53:54;;;;;;;;;1.00;0.00;;;;;;;;5097431;27;45364;-71
2023/03/08 10:56:35;;;;;;;;;0.33;0.33;;;;;;;;5096546;27;45501;-72
2023/03/08 10:59:01;;;;;;;;;0.00;0.00;;;;;;;;5096389;27;45388;-71
2023/03/08 11:01:30;;;;;;;;;3.33;1.67;;;;;;;;5096161;27;45352;-71
2023/03/08 11:03:59;;;;;;;;;0.00;0.00;;;;;;;;5096239;27;45418;-71
2023/03/08 11:06:24;;;;;;;;;0.67;0.00;;;;;;;;5096269;27;45307;-72
2023/03/08 11:08:54;;;;;;;;;0.00;0.00;;;;;;;;5096086;27;46329;-71
2023/03/08 11:11:19;;;;;;;;;2.00;1.00;;;;;;;;5095703;27;45371;-73
2023/03/08 11:13:46;;;;;;;;;2.00;0.00;;;;;;;;5095042;27;45774;-71
2023/03/08 11:16:20;;;;;;;;;1.00;1.00;;;;;;;;5095504;27;45244;-72
2023/03/08 11:18:50;;;;;;;;;2.00;0.00;;;;;;;;5095568;27;45404;-71
2023/03/08 11:21:25;;;;;;;;;1.67;0.00;;;;;;;;5074980;28;45361;-72
2023/03/08 11:24:09;;;;;;;;;0.00;0.00;;;;;;;;5090923;27;45444;-72
2023/03/08 11:26:54;;;;;;;;;0.00;0.00;;;;;;;;5096596;27;45362;-71
2023/03/08 11:29:25;;;;;;;;;2.00;0.33;;;;;;;;5095853;27;45537;-72
2023/03/08 11:32:08;;;;;;;;;1.00;1.00;;;;;;;;5095395;27;45376;-71
2023/03/08 11:34:44;;;;;;;;;1.00;1.00;;;;;;;;5093666;27;45513;-71
2023/03/08 11:37:23;;;;;;;;;0.00;0.00;;;;;;;;5093931;27;46041;-71
2023/03/08 11:40:07;;;;;;;;;2.00;2.00;;;;;;;;5086405;27;46221;-72
2023/03/08 11:42:43;;;;;;;;;1.00;1.00;;;;;;;;5081935;27;45458;-72
2023/03/08 11:45:27;;;;;;;;;0.00;0.00;;;;;;;;5095444;27;45444;-72
2023/03/08 11:48:08;;;;;;;;;0.33;0.00;;;;;;;;5090781;27;45339;-72
2023/03/08 11:50:56;;;;;;;;;3.00;1.00;;;;;;;;5107845;27;46412;-75
2023/03/08 11:53:37;;;;;;;;;3.00;0.33;;;;;;;;5035947;28;45761;-73
2023/03/08 11:56:21;;;;;;;;;2.00;1.00;;;;;;;;5046282;28;45442;-72
2023/03/08 11:58:51;;;;;;;;;0.00;0.00;;;;;;;;5045079;28;45545;-72
2023/03/08 12:01:19;;;;;;;;;1.00;1.00;;;;;;;;5035584;28;45620;-72
2023/03/08 12:03:52;;;;;;;;;1.00;1.00;;;;;;;;5048133;28;45557;-71
2023/03/08 12:06:53;;;;;;;;;1.00;0.00;;;;;;;;5031229;28;45615;-71
2023/03/08 12:09:18;;;;;;;;;1.00;1.00;;;;;;;;4991221;28;45454;-71
2023/03/08 12:11:46;;;;;;;;;2.50;1.50;;;;;;;;4977380;28;45456;-71
2023/03/08 12:14:24;;;;;;;;;1.67;1.00;;;;;;;;4984500;28;45486;-71
2023/03/08 12:16:58;;;;;;;;;0.00;0.00;;;;;;;;4967473;28;45440;-71
2023/03/08 12:19:23;;;;;;;;;1.00;1.00;;;;;;;;4992800;28;45514;-70
2023/03/08 12:21:54;;;;;;;;;0.00;0.00;;;;;;;;4980566;28;45419;-72
2023/03/08 12:24:26;;;;;;;;;0.00;0.00;;;;;;;;4986424;28;45482;-71
2023/03/08 12:26:57;;;;;;;;;0.00;0.00;;;;;;;;4989361;28;45487;-71
2023/03/08 12:29:25;;;;;;;;;0.00;0.00;;;;;;;;4985755;28;45399;-71
2023/03/08 12:31:50;;;;;;;;;0.00;0.00;;;;;;;;5070932;28;46227;-70
2023/03/08 12:34:26;;;;;;;;;0.00;0.00;;;;;;;;5064596;28;45347;-71
2023/03/08 12:36:51;;;;;;;;;1.33;0.33;;;;;;;;5063093;28;45454;-72
2023/03/08 12:39:25;;;;;;;;;0.00;0.00;;;;;;;;5072438;28;45627;-71
2023/03/08 12:42:01;;;;;;;;;0.00;0.00;;;;;;;;5061214;28;47238;-72
2023/03/08 12:44:28;;;;;;;;;0.00;0.00;;;;;;;;5108045;27;45351;-73
2023/03/08 12:46:59;;;;;;;;;0.00;0.00;;;;;;;;5113173;27;45485;-75
2023/03/08 12:49:35;;;;;;;;;1.00;0.00;;;;;;;;5101182;27;45309;-71
2023/03/08 12:52:03;;;;;;;;;0.33;0.33;;;;;;;;5113238;27;45726;-71
2023/03/08 12:54:31;;;;;;;;;1.00;1.00;;;;;;;;5109163;27;45562;-71
2023/03/08 12:56:56;;;;;;;;;0.00;0.00;;;;;;;;5104492;27;45447;-71
2023/03/08 12:59:32;;;;;;;;;2.67;0.67;;;;;;;;5099018;27;45484;-71
2023/03/08 13:01:57;;;;;;;;;1.00;1.00;;;;;;;;5098122;27;48242;-71
2023/03/08 13:04:39;;;;;;;;;1.00;1.00;;;;;;;;5099820;27;45293;-71
2023/03/08 13:07:04;;;;;;;;;2.00;0.00;;;;;;;;5099511;27;45357;-71
2023/03/08 13:09:32;;;;;;;;;0.00;0.00;;;;;;;;5098519;27;45436;-71
2023/03/08 13:12:17;;;;;;;;;0.00;0.00;;;;;;;;5098570;27;45523;-71
2023/03/08 13:14:44;;;;;;;;;1.00;1.00;;;;;;;;5097926;27;45405;-71
2023/03/08 13:17:28;;;;;;;;;2.33;1.00;;;;;;;;5098838;27;45230;-70
2023/03/08 13:19:53;;;;;;;;;12.75;11.50;;;;;;;;5097738;27;45399;-71
2023/03/08 13:22:41;;;;;;;;;1.75;1.75;;;;;;;;5098273;27;45349;-71
2023/03/08 13:25:13;;;;;;;;;1.33;1.33;;;;;;;;5094962;27;45456;-71
2023/03/08 13:27:59;;;;;;;;;0.00;0.00;;;;;;;;5098728;27;45353;-71
2023/03/08 13:30:28;;;;;;;;;0.33;0.00;;;;;;;;5098743;27;45337;-70
2023/03/08 13:32:53;;;;;;;;;0.00;0.00;;;;;;;;5098888;27;45694;-70
2023/03/08 13:35:19;;;;;;;;;0.00;0.00;;;;;;;;5098282;27;45390;-72
2023/03/08 13:37:51;;;;;;;;;2.00;0.00;;;;;;;;5097138;27;45319;-72
2023/03/08 13:40:18;;;;;;;;;1.67;1.00;;;;;;;;5098199;27;45409;-72
2023/03/08 13:42:53;;;;;;;;;1.00;0.00;;;;;;;;5097884;27;45659;-73
2023/03/08 13:45:18;;;;;;;;;0.00;0.00;;;;;;;;5096772;27;45434;-74
2023/03/08 13:47:44;;;;;;;;;1.25;1.25;;;;;;;;5096544;27;45481;-72
2023/03/08 13:50:17;;;;;;;;;0.33;0.33;;;;;;;;5098258;27;45331;-73
2023/03/08 13:52:43;;;;;;;;;1.00;1.00;;;;;;;;5097832;27;46926;-72
2023/03/08 13:55:15;;;;;;;;;0.00;0.00;;;;;;;;5097532;27;45420;-72
2023/03/08 13:57:41;;;;;;;;;0.00;0.00;;;;;;;;5098049;27;45316;-72
2023/03/08 14:00:25;;;;;;;;;0.00;0.00;;;;;;;;5097977;27;45343;-72
2023/03/08 14:02:51;;;;;;;;;0.00;0.00;;;;;;;;5097590;27;45865;-71
2023/03/08 14:05:33;;;;;;;;;0.67;0.67;;;;;;;;5096356;27;45453;-72
2023/03/08 14:08:03;;;;;;;;;0.75;0.75;;;;;;;;5097649;27;45464;-73
2023/03/08 14:10:33;;;;;;;;;1.00;1.00;;;;;;;;5096277;27;45525;-72
2023/03/08 14:12:58;;;;;;;;;2.00;0.75;;;;;;;;5097012;27;46359;-72
2023/03/08 14:15:24;;;;;;;;;0.00;0.00;;;;;;;;5097550;27;45357;-72
2023/03/08 14:17:49;;;;;;;;;0.00;0.00;;;;;;;;5097475;27;45253;-72
2023/03/08 14:20:23;;;;;;;;;0.67;0.67;;;;;;;;5097550;27;45272;-72
2023/03/08 14:22:50;;;;;;;;;0.00;0.00;;;;;;;;5097188;27;45649;-72
2023/03/08 14:25:29;;;;;;;;;0.00;0.00;;;;;;;;5098096;27;45301;-72
2023/03/08 14:27:54;;;;;;;;;0.00;0.00;;;;;;;;5097623;27;45458;-72
2023/03/08 14:30:21;;;;;;;;;0.00;0.00;;;;;;;;5097644;27;45389;-72
2023/03/08 14:32:58;;;;;;;;;0.00;0.00;;;;;;;;5095003;27;46191;-72
2023/03/08 14:35:37;;;;;;;;;0.00;0.00;;;;;;;;5096069;27;45300;-72
2023/03/08 14:38:02;;;;;;;;;0.50;0.50;;;;;;;;5096865;27;45302;-70
2023/03/08 14:40:29;;;;;;;;;0.00;0.00;;;;;;;;5095934;27;45578;-70
2023/03/08 14:43:01;;;;;;;;;0.33;0.33;;;;;;;;5097380;27;47016;-69
2023/03/08 14:45:29;;;;;;;;;0.67;0.33;;;;;;;;5096400;27;45252;-70
2023/03/08 14:47:57;;;;;;;;;5.50;2.00;;;;;;;;5097094;27;45349;-69
2023/03/08 14:50:26;;;;;;;;;0.67;0.67;;;;;;;;5097126;27;45455;-69
2023/03/08 14:52:53;;;;;;;;;1.00;1.00;;;;;;;;5096676;27;45646;-67
2023/03/08 14:55:24;;;;;;;;;0.00;0.00;;;;;;;;5097072;27;45369;-69